sensor_id;sensor_type;location;lat;lon;timestamp;P1;durP1;ratioP1;P2;durP2;ratioP2
16193;SDS011;8204;53.582;10.080;2023-03-30T00:01:22;24.13;;;19.93;;
16193;SDS011;8204;53.582;10.080;2023-03-30T00:03:51;21.93;;;20.13;;
16193;SDS011;8204;53.582;10.080;2023-03-30T00:06:21;22.90;;;20.87;;
16193;SDS011;8204;53.582;10.080;2023-03-30T00:08:53;22.87;;;21.07;;
16193;SDS011;8204;53.582;10.080;2023-03-30T00:11:24;23.07;;;20.90;;
16193;SDS011;8204;53.582;10.080;2023-03-30T00:13:58;24.43;;;20.93;;
16193;SDS011;8204;53.582;10.080;2023-03-30T00:16:30;22.63;;;20.63;;
16193;SDS011;8204;53.582;10.080;2023-03-30T00:18:59;22.13;;;20.10;;
16193;SDS011;8204;53.582;10.080;2023-03-30T00:21:29;21.60;;;19.70;;
16193;SDS011;8204;53.582;10.080;2023-03-30T00:23:58;21.60;;;19.67;;
16193;SDS011;8204;53.582;10.080;2023-03-30T00:26:27;21.47;;;19.60;;
16193;SDS011;8204;53.582;10.080;2023-03-30T00:28:56;22.70;;;20.53;;
16193;SDS011;8204;53.582;10.080;2023-03-30T00:31:25;21.87;;;19.73;;
16193;SDS011;8204;53.582;10.080;2023-03-30T00:33:57;23.37;;;20.97;;
16193;SDS011;8204;53.582;10.080;2023-03-30T00:36:26;23.93;;;21.87;;
16193;SDS011;8204;53.582;10.080;2023-03-30T00:38:55;22.13;;;20.23;;
16193;SDS011;8204;53.582;10.080;2023-03-30T00:41:26;23.33;;;20.90;;
16193;SDS011;8204;53.582;10.080;2023-03-30T00:43:56;23.30;;;21.20;;
16193;SDS011;8204;53.582;10.080;2023-03-30T00:46:27;22.13;;;20.23;;
16193;SDS011;8204;53.582;10.080;2023-03-30T00:49:00;21.93;;;19.83;;
16193;SDS011;8204;53.582;10.080;2023-03-30T00:51:32;26.93;;;20.83;;
16193;SDS011;8204;53.582;10.080;2023-03-30T00:54:04;20.97;;;19.20;;
16193;SDS011;8204;53.582;10.080;2023-03-30T00:56:36;20.93;;;19.00;;
16193;SDS011;8204;53.582;10.080;2023-03-30T00:59:06;21.30;;;19.10;;
16193;SDS011;8204;53.582;10.080;2023-03-30T01:01:35;20.03;;;18.33;;
16193;SDS011;8204;53.582;10.080;2023-03-30T01:04:08;18.73;;;17.00;;
16193;SDS011;8204;53.582;10.080;2023-03-30T01:06:39;22.17;;;20.13;;
16193;SDS011;8204;53.582;10.080;2023-03-30T01:09:10;21.40;;;19.43;;
16193;SDS011;8204;53.582;10.080;2023-03-30T01:11:40;22.63;;;20.60;;
16193;SDS011;8204;53.582;10.080;2023-03-30T01:14:10;19.73;;;17.80;;
16193;SDS011;8204;53.582;10.080;2023-03-30T01:16:41;20.03;;;18.03;;
16193;SDS011;8204;53.582;10.080;2023-03-30T01:19:23;20.17;;;18.23;;
16193;SDS011;8204;53.582;10.080;2023-03-30T01:22:17;21.23;;;19.13;;
16193;SDS011;8204;53.582;10.080;2023-03-30T01:28:05;18.67;;;16.97;;
16193;SDS011;8204;53.582;10.080;2023-03-30T01:31:03;18.80;;;16.90;;
16193;SDS011;8204;53.582;10.080;2023-03-30T01:34:05;19.80;;;18.03;;
16193;SDS011;8204;53.582;10.080;2023-03-30T01:37:00;20.30;;;18.40;;
16193;SDS011;8204;53.582;10.080;2023-03-30T01:39:50;18.63;;;16.93;;
16193;SDS011;8204;53.582;10.080;2023-03-30T01:42:26;20.10;;;18.20;;
16193;SDS011;8204;53.582;10.080;2023-03-30T01:45:06;19.73;;;17.93;;
16193;SDS011;8204;53.582;10.080;2023-03-30T01:47:43;21.00;;;18.83;;
16193;SDS011;8204;53.582;10.080;2023-03-30T01:50:20;20.37;;;18.40;;
16193;SDS011;8204;53.582;10.080;2023-03-30T01:52:54;18.20;;;16.70;;
16193;SDS011;8204;53.582;10.080;2023-03-30T01:55:31;26.80;;;18.90;;
16193;SDS011;8204;53.582;10.080;2023-03-30T01:58:02;21.87;;;19.77;;
16193;SDS011;8204;53.582;10.080;2023-03-30T02:00:37;19.97;;;17.83;;
16193;SDS011;8204;53.582;10.080;2023-03-30T02:03:10;20.17;;;18.23;;
16193;SDS011;8204;53.582;10.080;2023-03-30T02:05:43;22.17;;;20.27;;
16193;SDS011;8204;53.582;10.080;2023-03-30T02:08:17;21.60;;;19.43;;
16193;SDS011;8204;53.582;10.080;2023-03-30T02:10:53;20.83;;;18.80;;
16193;SDS011;8204;53.582;10.080;2023-03-30T02:13:25;22.90;;;20.80;;
16193;SDS011;8204;53.582;10.080;2023-03-30T02:15:57;23.50;;;21.10;;
16193;SDS011;8204;53.582;10.080;2023-03-30T02:18:30;21.20;;;19.40;;
16193;SDS011;8204;53.582;10.080;2023-03-30T02:20:59;22.60;;;20.47;;
16193;SDS011;8204;53.582;10.080;2023-03-30T02:23:29;21.30;;;19.20;;
16193;SDS011;8204;53.582;10.080;2023-03-30T02:26:05;21.73;;;19.73;;
16193;SDS011;8204;53.582;10.080;2023-03-30T02:28:35;20.43;;;18.53;;
16193;SDS011;8204;53.582;10.080;2023-03-30T02:31:05;20.80;;;18.90;;
16193;SDS011;8204;53.582;10.080;2023-03-30T02:33:42;23.50;;;19.67;;
16193;SDS011;8204;53.582;10.080;2023-03-30T02:36:30;20.83;;;18.90;;
16193;SDS011;8204;53.582;10.080;2023-03-30T02:39:15;20.50;;;18.50;;
16193;SDS011;8204;53.582;10.080;2023-03-30T02:41:59;24.07;;;20.10;;
16193;SDS011;8204;53.582;10.080;2023-03-30T02:44:41;20.63;;;18.67;;
16193;SDS011;8204;53.582;10.080;2023-03-30T02:47:17;22.07;;;19.90;;
16193;SDS011;8204;53.582;10.080;2023-03-30T02:49:54;21.23;;;19.17;;
16193;SDS011;8204;53.582;10.080;2023-03-30T02:52:34;18.53;;;16.93;;
16193;SDS011;8204;53.582;10.080;2023-03-30T02:55:12;22.13;;;20.00;;
16193;SDS011;8204;53.582;10.080;2023-03-30T02:57:52;22.53;;;20.40;;
16193;SDS011;8204;53.582;10.080;2023-03-30T03:00:29;20.83;;;18.73;;
16193;SDS011;8204;53.582;10.080;2023-03-30T03:03:06;22.60;;;20.57;;
16193;SDS011;8204;53.582;10.080;2023-03-30T03:05:41;24.53;;;21.03;;
16193;SDS011;8204;53.582;10.080;2023-03-30T03:08:12;21.83;;;19.67;;
16193;SDS011;8204;53.582;10.080;2023-03-30T03:10:42;21.23;;;19.33;;
16193;SDS011;8204;53.582;10.080;2023-03-30T03:13:13;20.47;;;18.53;;
16193;SDS011;8204;53.582;10.080;2023-03-30T03:15:43;23.63;;;21.13;;
16193;SDS011;8204;53.582;10.080;2023-03-30T03:18:14;22.40;;;18.83;;
16193;SDS011;8204;53.582;10.080;2023-03-30T03:20:43;21.37;;;19.37;;
16193;SDS011;8204;53.582;10.080;2023-03-30T03:23:11;23.33;;;21.13;;
16193;SDS011;8204;53.582;10.080;2023-03-30T03:25:41;21.37;;;18.90;;
16193;SDS011;8204;53.582;10.080;2023-03-30T03:28:12;21.60;;;19.67;;
16193;SDS011;8204;53.582;10.080;2023-03-30T03:30:41;24.33;;;21.90;;
16193;SDS011;8204;53.582;10.080;2023-03-30T03:33:10;22.93;;;20.70;;
16193;SDS011;8204;53.582;10.080;2023-03-30T03:35:39;21.10;;;19.00;;
16193;SDS011;8204;53.582;10.080;2023-03-30T03:38:10;22.77;;;20.57;;
16193;SDS011;8204;53.582;10.080;2023-03-30T03:40:39;22.77;;;20.53;;
16193;SDS011;8204;53.582;10.080;2023-03-30T03:43:09;21.40;;;19.50;;
16193;SDS011;8204;53.582;10.080;2023-03-30T03:45:40;20.47;;;18.70;;
16193;SDS011;8204;53.582;10.080;2023-03-30T03:48:10;21.87;;;19.57;;
16193;SDS011;8204;53.582;10.080;2023-03-30T03:50:39;18.97;;;17.33;;
16193;SDS011;8204;53.582;10.080;2023-03-30T03:53:08;20.57;;;18.67;;
16193;SDS011;8204;53.582;10.080;2023-03-30T03:55:38;21.77;;;19.27;;
16193;SDS011;8204;53.582;10.080;2023-03-30T03:58:07;21.70;;;19.70;;
16193;SDS011;8204;53.582;10.080;2023-03-30T04:00:37;21.77;;;19.60;;
16193;SDS011;8204;53.582;10.080;2023-03-30T04:03:08;21.53;;;19.53;;
16193;SDS011;8204;53.582;10.080;2023-03-30T04:05:40;21.20;;;19.20;;
16193;SDS011;8204;53.582;10.080;2023-03-30T04:08:11;21.63;;;19.50;;
16193;SDS011;8204;53.582;10.080;2023-03-30T04:10:42;20.83;;;18.83;;
16193;SDS011;8204;53.582;10.080;2023-03-30T04:13:11;20.87;;;18.83;;
16193;SDS011;8204;53.582;10.080;2023-03-30T04:15:40;21.60;;;19.30;;
16193;SDS011;8204;53.582;10.080;2023-03-30T04:18:12;22.47;;;20.37;;
16193;SDS011;8204;53.582;10.080;2023-03-30T04:20:40;20.90;;;18.90;;
16193;SDS011;8204;53.582;10.080;2023-03-30T04:23:09;23.33;;;21.13;;
16193;SDS011;8204;53.582;10.080;2023-03-30T04:25:46;20.70;;;18.90;;
16193;SDS011;8204;53.582;10.080;2023-03-30T04:28:16;21.97;;;19.97;;
16193;SDS011;8204;53.582;10.080;2023-03-30T04:30:50;22.70;;;20.33;;
16193;SDS011;8204;53.582;10.080;2023-03-30T04:33:23;22.30;;;20.20;;
16193;SDS011;8204;53.582;10.080;2023-03-30T04:35:51;20.90;;;18.87;;
16193;SDS011;8204;53.582;10.080;2023-03-30T04:38:20;19.57;;;17.67;;
16193;SDS011;8204;53.582;10.080;2023-03-30T04:40:50;21.30;;;19.07;;
16193;SDS011;8204;53.582;10.080;2023-03-30T04:43:20;20.43;;;18.47;;
16193;SDS011;8204;53.582;10.080;2023-03-30T04:45:50;20.83;;;18.67;;
16193;SDS011;8204;53.582;10.080;2023-03-30T04:48:23;20.97;;;18.97;;
16193;SDS011;8204;53.582;10.080;2023-03-30T04:50:52;18.83;;;17.13;;
16193;SDS011;8204;53.582;10.080;2023-03-30T04:53:22;18.27;;;16.37;;
16193;SDS011;8204;53.582;10.080;2023-03-30T04:55:51;21.23;;;19.13;;
16193;SDS011;8204;53.582;10.080;2023-03-30T04:58:19;19.97;;;17.93;;
16193;SDS011;8204;53.582;10.080;2023-03-30T05:00:48;18.40;;;16.57;;
16193;SDS011;8204;53.582;10.080;2023-03-30T05:03:19;18.97;;;17.10;;
16193;SDS011;8204;53.582;10.080;2023-03-30T05:05:51;19.43;;;17.53;;
16193;SDS011;8204;53.582;10.080;2023-03-30T05:08:25;20.67;;;18.67;;
16193;SDS011;8204;53.582;10.080;2023-03-30T05:10:54;19.83;;;17.80;;
16193;SDS011;8204;53.582;10.080;2023-03-30T05:13:25;19.70;;;17.70;;
16193;SDS011;8204;53.582;10.080;2023-03-30T05:15:54;19.77;;;17.97;;
16193;SDS011;8204;53.582;10.080;2023-03-30T05:18:23;21.97;;;17.63;;
16193;SDS011;8204;53.582;10.080;2023-03-30T05:20:57;17.87;;;15.97;;
16193;SDS011;8204;53.582;10.080;2023-03-30T05:23:26;23.43;;;17.83;;
16193;SDS011;8204;53.582;10.080;2023-03-30T05:25:55;17.57;;;15.77;;
16193;SDS011;8204;53.582;10.080;2023-03-30T05:28:24;19.13;;;16.97;;
16193;SDS011;8204;53.582;10.080;2023-03-30T05:30:53;16.90;;;15.40;;
16193;SDS011;8204;53.582;10.080;2023-03-30T05:33:22;19.03;;;17.13;;
16193;SDS011;8204;53.582;10.080;2023-03-30T05:35:52;18.60;;;16.80;;
16193;SDS011;8204;53.582;10.080;2023-03-30T05:38:25;18.40;;;16.70;;
16193;SDS011;8204;53.582;10.080;2023-03-30T05:40:53;19.97;;;18.03;;
16193;SDS011;8204;53.582;10.080;2023-03-30T05:43:23;18.00;;;16.20;;
16193;SDS011;8204;53.582;10.080;2023-03-30T05:45:52;19.40;;;17.30;;
16193;SDS011;8204;53.582;10.080;2023-03-30T05:48:22;16.63;;;15.13;;
16193;SDS011;8204;53.582;10.080;2023-03-30T05:50:51;17.37;;;15.73;;
16193;SDS011;8204;53.582;10.080;2023-03-30T05:53:20;19.23;;;17.37;;
16193;SDS011;8204;53.582;10.080;2023-03-30T05:55:52;19.47;;;17.53;;
16193;SDS011;8204;53.582;10.080;2023-03-30T05:58:22;18.90;;;16.87;;
16193;SDS011;8204;53.582;10.080;2023-03-30T06:00:51;17.23;;;15.57;;
16193;SDS011;8204;53.582;10.080;2023-03-30T06:03:21;17.33;;;15.53;;
16193;SDS011;8204;53.582;10.080;2023-03-30T06:05:51;16.47;;;14.97;;
16193;SDS011;8204;53.582;10.080;2023-03-30T06:08:20;16.20;;;14.53;;
16193;SDS011;8204;53.582;10.080;2023-03-30T06:10:54;17.87;;;13.93;;
16193;SDS011;8204;53.582;10.080;2023-03-30T06:13:24;16.80;;;15.13;;
16193;SDS011;8204;53.582;10.080;2023-03-30T06:15:53;15.23;;;13.70;;
16193;SDS011;8204;53.582;10.080;2023-03-30T06:18:22;17.50;;;13.87;;
16193;SDS011;8204;53.582;10.080;2023-03-30T06:20:51;15.87;;;14.17;;
16193;SDS011;8204;53.582;10.080;2023-03-30T06:23:19;15.90;;;14.47;;
16193;SDS011;8204;53.582;10.080;2023-03-30T06:25:48;17.37;;;13.53;;
16193;SDS011;8204;53.582;10.080;2023-03-30T06:28:22;15.50;;;14.10;;
16193;SDS011;8204;53.582;10.080;2023-03-30T06:30:51;15.23;;;13.73;;
16193;SDS011;8204;53.582;10.080;2023-03-30T06:33:21;15.97;;;14.50;;
16193;SDS011;8204;53.582;10.080;2023-03-30T06:35:51;15.77;;;14.23;;
16193;SDS011;8204;53.582;10.080;2023-03-30T06:38:21;15.60;;;14.07;;
16193;SDS011;8204;53.582;10.080;2023-03-30T06:40:51;16.63;;;14.60;;
16193;SDS011;8204;53.582;10.080;2023-03-30T06:43:20;20.80;;;14.33;;
16193;SDS011;8204;53.582;10.080;2023-03-30T06:45:53;15.17;;;13.67;;
16193;SDS011;8204;53.582;10.080;2023-03-30T06:48:23;17.20;;;15.50;;
16193;SDS011;8204;53.582;10.080;2023-03-30T06:50:52;14.67;;;13.27;;
16193;SDS011;8204;53.582;10.080;2023-03-30T06:53:22;15.87;;;14.40;;
16193;SDS011;8204;53.582;10.080;2023-03-30T06:55:51;16.53;;;13.30;;
16193;SDS011;8204;53.582;10.080;2023-03-30T06:58:24;18.13;;;14.80;;
16193;SDS011;8204;53.582;10.080;2023-03-30T07:00:54;14.13;;;12.73;;
16193;SDS011;8204;53.582;10.080;2023-03-30T07:03:23;14.27;;;12.77;;
16193;SDS011;8204;53.582;10.080;2023-03-30T07:05:54;13.60;;;12.27;;
16193;SDS011;8204;53.582;10.080;2023-03-30T07:08:23;14.13;;;12.90;;
16193;SDS011;8204;53.582;10.080;2023-03-30T07:10:52;14.77;;;12.03;;
16193;SDS011;8204;53.582;10.080;2023-03-30T07:13:20;16.27;;;13.77;;
16193;SDS011;8204;53.582;10.080;2023-03-30T07:15:53;14.63;;;13.10;;
16193;SDS011;8204;53.582;10.080;2023-03-30T07:18:23;13.87;;;11.77;;
16193;SDS011;8204;53.582;10.080;2023-03-30T07:20:52;14.47;;;13.07;;
16193;SDS011;8204;53.582;10.080;2023-03-30T07:23:20;14.53;;;13.03;;
16193;SDS011;8204;53.582;10.080;2023-03-30T07:25:50;13.93;;;12.53;;
16193;SDS011;8204;53.582;10.080;2023-03-30T07:28:19;12.97;;;11.53;;
16193;SDS011;8204;53.582;10.080;2023-03-30T07:30:50;12.53;;;11.30;;
16193;SDS011;8204;53.582;10.080;2023-03-30T07:33:20;16.23;;;13.57;;
16193;SDS011;8204;53.582;10.080;2023-03-30T07:35:50;12.77;;;11.17;;
16193;SDS011;8204;53.582;10.080;2023-03-30T07:38:20;17.90;;;11.13;;
16193;SDS011;8204;53.582;10.080;2023-03-30T07:40:50;13.40;;;11.37;;
16193;SDS011;8204;53.582;10.080;2023-03-30T07:43:19;12.23;;;10.93;;
16193;SDS011;8204;53.582;10.080;2023-03-30T07:45:47;15.03;;;11.83;;
16193;SDS011;8204;53.582;10.080;2023-03-30T07:48:19;12.23;;;10.23;;
16193;SDS011;8204;53.582;10.080;2023-03-30T07:50:48;12.47;;;9.80;;
16193;SDS011;8204;53.582;10.080;2023-03-30T07:53:17;15.50;;;10.67;;
16193;SDS011;8204;53.582;10.080;2023-03-30T07:55:48;11.37;;;9.80;;
16193;SDS011;8204;53.582;10.080;2023-03-30T07:58:17;11.27;;;8.80;;
16193;SDS011;8204;53.582;10.080;2023-03-30T08:00:46;13.53;;;11.23;;
16193;SDS011;8204;53.582;10.080;2023-03-30T08:03:19;10.17;;;9.17;;
16193;SDS011;8204;53.582;10.080;2023-03-30T08:05:52;12.53;;;10.27;;
16193;SDS011;8204;53.582;10.080;2023-03-30T08:08:24;13.27;;;9.47;;
16193;SDS011;8204;53.582;10.080;2023-03-30T08:10:52;10.53;;;8.53;;
16193;SDS011;8204;53.582;10.080;2023-03-30T08:13:22;12.87;;;9.13;;
16193;SDS011;8204;53.582;10.080;2023-03-30T08:15:50;9.97;;;8.97;;
16193;SDS011;8204;53.582;10.080;2023-03-30T08:18:23;8.47;;;7.53;;
16193;SDS011;8204;53.582;10.080;2023-03-30T08:20:53;13.67;;;9.13;;
16193;SDS011;8204;53.582;10.080;2023-03-30T08:23:21;20.03;;;8.70;;
16193;SDS011;8204;53.582;10.080;2023-03-30T08:25:50;10.13;;;7.93;;
16193;SDS011;8204;53.582;10.080;2023-03-30T08:28:20;12.13;;;7.53;;
16193;SDS011;8204;53.582;10.080;2023-03-30T08:30:49;7.73;;;5.77;;
16193;SDS011;8204;53.582;10.080;2023-03-30T08:33:18;6.63;;;5.73;;
16193;SDS011;8204;53.582;10.080;2023-03-30T08:35:50;8.43;;;6.27;;
16193;SDS011;8204;53.582;10.080;2023-03-30T08:38:21;10.23;;;6.77;;
16193;SDS011;8204;53.582;10.080;2023-03-30T08:40:51;8.03;;;5.97;;
16193;SDS011;8204;53.582;10.080;2023-03-30T08:43:24;6.50;;;5.90;;
16193;SDS011;8204;53.582;10.080;2023-03-30T08:46:00;14.83;;;6.07;;
16193;SDS011;8204;53.582;10.080;2023-03-30T08:48:31;9.13;;;6.53;;
16193;SDS011;8204;53.582;10.080;2023-03-30T08:51:07;10.77;;;5.93;;
16193;SDS011;8204;53.582;10.080;2023-03-30T08:53:42;6.57;;;5.83;;
16193;SDS011;8204;53.582;10.080;2023-03-30T08:56:13;7.07;;;5.47;;
16193;SDS011;8204;53.582;10.080;2023-03-30T08:58:50;11.47;;;7.17;;
16193;SDS011;8204;53.582;10.080;2023-03-30T09:01:30;11.20;;;5.43;;
16193;SDS011;8204;53.582;10.080;2023-03-30T09:04:07;10.07;;;6.13;;
16193;SDS011;8204;53.582;10.080;2023-03-30T09:06:52;9.00;;;6.17;;
16193;SDS011;8204;53.582;10.080;2023-03-30T09:09:24;9.03;;;5.73;;
16193;SDS011;8204;53.582;10.080;2023-03-30T09:11:58;8.17;;;5.97;;
16193;SDS011;8204;53.582;10.080;2023-03-30T09:14:32;8.23;;;6.63;;
16193;SDS011;8204;53.582;10.080;2023-03-30T09:17:06;12.13;;;6.60;;
16193;SDS011;8204;53.582;10.080;2023-03-30T09:19:44;9.10;;;5.73;;
16193;SDS011;8204;53.582;10.080;2023-03-30T09:22:20;7.77;;;5.60;;
16193;SDS011;8204;53.582;10.080;2023-03-30T09:24:54;10.07;;;6.23;;
16193;SDS011;8204;53.582;10.080;2023-03-30T09:27:26;7.40;;;6.10;;
16193;SDS011;8204;53.582;10.080;2023-03-30T09:30:12;5.80;;;5.30;;
16193;SDS011;8204;53.582;10.080;2023-03-30T09:32:46;8.43;;;6.67;;
16193;SDS011;8204;53.582;10.080;2023-03-30T09:35:21;6.50;;;5.13;;
16193;SDS011;8204;53.582;10.080;2023-03-30T09:37:56;7.93;;;6.10;;
16193;SDS011;8204;53.582;10.080;2023-03-30T09:40:30;7.07;;;6.03;;
16193;SDS011;8204;53.582;10.080;2023-03-30T09:43:07;8.33;;;6.60;;
16193;SDS011;8204;53.582;10.080;2023-03-30T09:45:42;7.70;;;5.30;;
16193;SDS011;8204;53.582;10.080;2023-03-30T09:48:12;9.37;;;6.90;;
16193;SDS011;8204;53.582;10.080;2023-03-30T09:50:43;6.73;;;5.60;;
16193;SDS011;8204;53.582;10.080;2023-03-30T09:53:21;7.03;;;5.43;;
16193;SDS011;8204;53.582;10.080;2023-03-30T09:55:56;7.30;;;5.10;;
16193;SDS011;8204;53.582;10.080;2023-03-30T09:58:30;8.70;;;5.83;;
16193;SDS011;8204;53.582;10.080;2023-03-30T10:01:00;5.50;;;5.00;;
16193;SDS011;8204;53.582;10.080;2023-03-30T10:03:30;8.60;;;6.23;;
16193;SDS011;8204;53.582;10.080;2023-03-30T10:06:02;6.67;;;5.80;;
16193;SDS011;8204;53.582;10.080;2023-03-30T10:08:36;8.07;;;6.40;;
16193;SDS011;8204;53.582;10.080;2023-03-30T10:11:09;6.50;;;5.87;;
16193;SDS011;8204;53.582;10.080;2023-03-30T10:13:40;8.23;;;6.10;;
16193;SDS011;8204;53.582;10.080;2023-03-30T10:16:11;6.23;;;5.33;;
16193;SDS011;8204;53.582;10.080;2023-03-30T10:18:51;10.20;;;6.10;;
16193;SDS011;8204;53.582;10.080;2023-03-30T10:21:22;7.23;;;4.93;;
16193;SDS011;8204;53.582;10.080;2023-03-30T10:24:05;7.13;;;4.83;;
16193;SDS011;8204;53.582;10.080;2023-03-30T10:26:47;8.37;;;5.90;;
16193;SDS011;8204;53.582;10.080;2023-03-30T10:29:18;5.57;;;5.07;;
16193;SDS011;8204;53.582;10.080;2023-03-30T10:31:51;9.63;;;6.00;;
16193;SDS011;8204;53.582;10.080;2023-03-30T10:34:29;12.20;;;4.97;;
16193;SDS011;8204;53.582;10.080;2023-03-30T10:37:04;7.07;;;4.83;;
16193;SDS011;8204;53.582;10.080;2023-03-30T10:39:41;9.10;;;4.87;;
16193;SDS011;8204;53.582;10.080;2023-03-30T10:42:13;5.20;;;4.40;;
16193;SDS011;8204;53.582;10.080;2023-03-30T10:44:46;6.53;;;4.87;;
16193;SDS011;8204;53.582;10.080;2023-03-30T10:47:25;6.33;;;4.70;;
16193;SDS011;8204;53.582;10.080;2023-03-30T10:50:15;4.30;;;3.97;;
16193;SDS011;8204;53.582;10.080;2023-03-30T10:52:57;5.37;;;4.40;;
16193;SDS011;8204;53.582;10.080;2023-03-30T10:55:36;5.73;;;4.57;;
16193;SDS011;8204;53.582;10.080;2023-03-30T10:58:14;5.17;;;4.57;;
16193;SDS011;8204;53.582;10.080;2023-03-30T11:01:06;4.63;;;4.10;;
16193;SDS011;8204;53.582;10.080;2023-03-30T11:03:43;4.63;;;3.90;;
16193;SDS011;8204;53.582;10.080;2023-03-30T11:06:20;5.17;;;3.87;;
16193;SDS011;8204;53.582;10.080;2023-03-30T11:08:53;4.57;;;3.87;;
16193;SDS011;8204;53.582;10.080;2023-03-30T11:11:29;5.37;;;3.53;;
16193;SDS011;8204;53.582;10.080;2023-03-30T11:14:02;7.20;;;4.23;;
16193;SDS011;8204;53.582;10.080;2023-03-30T11:16:37;5.30;;;3.83;;
16193;SDS011;8204;53.582;10.080;2023-03-30T11:19:16;5.43;;;4.07;;
16193;SDS011;8204;53.582;10.080;2023-03-30T11:21:50;4.80;;;3.93;;
16193;SDS011;8204;53.582;10.080;2023-03-30T11:24:25;10.20;;;4.53;;
16193;SDS011;8204;53.582;10.080;2023-03-30T11:27:00;8.30;;;4.43;;
16193;SDS011;8204;53.582;10.080;2023-03-30T11:29:34;8.53;;;3.93;;
16193;SDS011;8204;53.582;10.080;2023-03-30T11:32:18;7.47;;;3.80;;
16193;SDS011;8204;53.582;10.080;2023-03-30T11:34:53;6.97;;;4.23;;
16193;SDS011;8204;53.582;10.080;2023-03-30T11:37:31;6.13;;;3.03;;
16193;SDS011;8204;53.582;10.080;2023-03-30T11:40:08;7.70;;;3.80;;
16193;SDS011;8204;53.582;10.080;2023-03-30T11:42:46;10.83;;;2.73;;
16193;SDS011;8204;53.582;10.080;2023-03-30T11:45:18;4.57;;;2.97;;
16193;SDS011;8204;53.582;10.080;2023-03-30T11:48:03;6.60;;;3.43;;
16193;SDS011;8204;53.582;10.080;2023-03-30T11:50:44;6.30;;;2.20;;
16193;SDS011;8204;53.582;10.080;2023-03-30T11:53:27;8.20;;;2.63;;
16193;SDS011;8204;53.582;10.080;2023-03-30T11:56:04;3.87;;;2.13;;
16193;SDS011;8204;53.582;10.080;2023-03-30T11:58:39;7.40;;;2.70;;
16193;SDS011;8204;53.582;10.080;2023-03-30T12:04:18;4.43;;;2.23;;
16193;SDS011;8204;53.582;10.080;2023-03-30T12:06:56;7.77;;;2.60;;
16193;SDS011;8204;53.582;10.080;2023-03-30T12:09:28;4.40;;;2.87;;
16193;SDS011;8204;53.582;10.080;2023-03-30T12:12:04;7.73;;;3.37;;
16193;SDS011;8204;53.582;10.080;2023-03-30T12:14:51;7.80;;;2.83;;
16193;SDS011;8204;53.582;10.080;2023-03-30T12:17:29;5.27;;;2.73;;
16193;SDS011;8204;53.582;10.080;2023-03-30T12:20:05;5.00;;;2.43;;
16193;SDS011;8204;53.582;10.080;2023-03-30T12:22:42;9.07;;;3.77;;
16193;SDS011;8204;53.582;10.080;2023-03-30T12:25:21;7.37;;;3.43;;
16193;SDS011;8204;53.582;10.080;2023-03-30T12:27:56;10.17;;;3.60;;
16193;SDS011;8204;53.582;10.080;2023-03-30T12:30:30;10.53;;;4.07;;
16193;SDS011;8204;53.582;10.080;2023-03-30T12:33:12;10.73;;;5.53;;
16193;SDS011;8204;53.582;10.080;2023-03-30T12:35:53;9.63;;;4.80;;
16193;SDS011;8204;53.582;10.080;2023-03-30T12:38:25;10.37;;;4.93;;
16193;SDS011;8204;53.582;10.080;2023-03-30T12:41:10;13.23;;;4.73;;
16193;SDS011;8204;53.582;10.080;2023-03-30T12:47:06;18.87;;;5.37;;
16193;SDS011;8204;53.582;10.080;2023-03-30T12:49:51;10.50;;;4.83;;
16193;SDS011;8204;53.582;10.080;2023-03-30T12:52:34;12.03;;;5.30;;
16193;SDS011;8204;53.582;10.080;2023-03-30T12:55:13;11.47;;;6.60;;
16193;SDS011;8204;53.582;10.080;2023-03-30T13:00:56;15.00;;;6.43;;
16193;SDS011;8204;53.582;10.080;2023-03-30T13:03:40;15.60;;;7.60;;
16193;SDS011;8204;53.582;10.080;2023-03-30T13:06:18;10.40;;;5.60;;
16193;SDS011;8204;53.582;10.080;2023-03-30T13:08:54;16.10;;;5.97;;
16193;SDS011;8204;53.582;10.080;2023-03-30T13:11:41;16.40;;;5.80;;
16193;SDS011;8204;53.582;10.080;2023-03-30T13:14:14;10.40;;;4.57;;
16193;SDS011;8204;53.582;10.080;2023-03-30T13:17:05;9.77;;;4.60;;
16193;SDS011;8204;53.582;10.080;2023-03-30T13:20:12;13.50;;;4.70;;
16193;SDS011;8204;53.582;10.080;2023-03-30T13:22:58;10.57;;;4.90;;
16193;SDS011;8204;53.582;10.080;2023-03-30T13:25:36;17.67;;;5.27;;
16193;SDS011;8204;53.582;10.080;2023-03-30T13:31:00;11.03;;;4.87;;
16193;SDS011;8204;53.582;10.080;2023-03-30T13:33:40;12.53;;;5.07;;
16193;SDS011;8204;53.582;10.080;2023-03-30T13:36:17;13.87;;;4.83;;
16193;SDS011;8204;53.582;10.080;2023-03-30T13:41:47;8.53;;;3.83;;
16193;SDS011;8204;53.582;10.080;2023-03-30T13:44:37;8.83;;;4.00;;
16193;SDS011;8204;53.582;10.080;2023-03-30T13:50:22;10.63;;;3.20;;
16193;SDS011;8204;53.582;10.080;2023-03-30T13:52:56;11.00;;;2.67;;
16193;SDS011;8204;53.582;10.080;2023-03-30T13:55:28;10.00;;;3.57;;
16193;SDS011;8204;53.582;10.080;2023-03-30T13:58:01;9.80;;;3.60;;
16193;SDS011;8204;53.582;10.080;2023-03-30T14:00:34;9.97;;;4.37;;
16193;SDS011;8204;53.582;10.080;2023-03-30T14:03:24;9.57;;;4.03;;
16193;SDS011;8204;53.582;10.080;2023-03-30T14:05:57;5.47;;;2.93;;
16193;SDS011;8204;53.582;10.080;2023-03-30T14:08:34;9.47;;;3.53;;
16193;SDS011;8204;53.582;10.080;2023-03-30T14:11:13;5.57;;;3.43;;
16193;SDS011;8204;53.582;10.080;2023-03-30T14:13:44;7.00;;;2.97;;
16193;SDS011;8204;53.582;10.080;2023-03-30T14:16:18;9.17;;;2.83;;
16193;SDS011;8204;53.582;10.080;2023-03-30T14:18:48;7.00;;;2.90;;
16193;SDS011;8204;53.582;10.080;2023-03-30T14:21:18;10.60;;;3.30;;
16193;SDS011;8204;53.582;10.080;2023-03-30T14:23:53;6.13;;;2.97;;
16193;SDS011;8204;53.582;10.080;2023-03-30T14:26:23;6.03;;;2.60;;
16193;SDS011;8204;53.582;10.080;2023-03-30T14:28:54;4.87;;;2.23;;
16193;SDS011;8204;53.582;10.080;2023-03-30T14:31:24;5.77;;;2.50;;
16193;SDS011;8204;53.582;10.080;2023-03-30T14:33:53;4.77;;;2.17;;
16193;SDS011;8204;53.582;10.080;2023-03-30T14:36:22;8.97;;;3.73;;
16193;SDS011;8204;53.582;10.080;2023-03-30T14:38:54;3.10;;;1.97;;
16193;SDS011;8204;53.582;10.080;2023-03-30T14:41:25;7.23;;;2.73;;
16193;SDS011;8204;53.582;10.080;2023-03-30T14:43:56;7.27;;;3.13;;
16193;SDS011;8204;53.582;10.080;2023-03-30T14:46:31;8.07;;;2.43;;
16193;SDS011;8204;53.582;10.080;2023-03-30T14:49:07;5.93;;;2.70;;
16193;SDS011;8204;53.582;10.080;2023-03-30T14:51:44;7.53;;;2.30;;
16193;SDS011;8204;53.582;10.080;2023-03-30T14:54:18;11.63;;;3.63;;
16193;SDS011;8204;53.582;10.080;2023-03-30T14:56:50;8.43;;;2.87;;
16193;SDS011;8204;53.582;10.080;2023-03-30T14:59:24;8.37;;;3.00;;
16193;SDS011;8204;53.582;10.080;2023-03-30T15:01:54;5.10;;;2.80;;
16193;SDS011;8204;53.582;10.080;2023-03-30T15:04:26;6.70;;;3.13;;
16193;SDS011;8204;53.582;10.080;2023-03-30T15:07:01;5.60;;;2.73;;
16193;SDS011;8204;53.582;10.080;2023-03-30T15:09:36;8.87;;;3.17;;
16193;SDS011;8204;53.582;10.080;2023-03-30T15:12:06;6.53;;;2.27;;
16193;SDS011;8204;53.582;10.080;2023-03-30T15:14:36;6.73;;;2.40;;
16193;SDS011;8204;53.582;10.080;2023-03-30T15:17:08;5.43;;;3.07;;
16193;SDS011;8204;53.582;10.080;2023-03-30T15:19:40;6.03;;;3.13;;
16193;SDS011;8204;53.582;10.080;2023-03-30T15:22:11;7.83;;;2.93;;
16193;SDS011;8204;53.582;10.080;2023-03-30T15:24:51;5.53;;;2.97;;
16193;SDS011;8204;53.582;10.080;2023-03-30T15:27:22;5.87;;;3.70;;
16193;SDS011;8204;53.582;10.080;2023-03-30T15:29:53;6.83;;;3.37;;